sensor_id;sensor_type;location;lat;lon;timestamp;P1;durP1;ratioP1;P2;durP2;ratioP2
5357;SDS011;2702;51.014;7.170;2023-02-15T00:00:30;25.40;;;18.33;;
5357;SDS011;2702;51.014;7.170;2023-02-15T00:02:56;24.20;;;17.60;;
5357;SDS011;2702;51.014;7.170;2023-02-15T00:05:22;26.70;;;18.37;;
5357;SDS011;2702;51.014;7.170;2023-02-15T00:07:48;26.43;;;18.10;;
5357;SDS011;2702;51.014;7.170;2023-02-15T00:10:13;26.33;;;18.17;;
5357;SDS011;2702;51.014;7.170;2023-02-15T00:12:40;21.87;;;16.10;;
5357;SDS011;2702;51.014;7.170;2023-02-15T00:15:06;25.13;;;17.47;;
5357;SDS011;2702;51.014;7.170;2023-02-15T00:17:32;24.97;;;17.33;;
5357;SDS011;2702;51.014;7.170;2023-02-15T00:19:58;23.23;;;17.30;;
5357;SDS011;2702;51.014;7.170;2023-02-15T00:22:23;27.47;;;19.07;;
5357;SDS011;2702;51.014;7.170;2023-02-15T00:24:51;25.20;;;17.97;;
5357;SDS011;2702;51.014;7.170;2023-02-15T00:27:17;29.43;;;18.57;;
5357;SDS011;2702;51.014;7.170;2023-02-15T00:29:42;25.87;;;18.17;;
5357;SDS011;2702;51.014;7.170;2023-02-15T00:32:08;26.40;;;18.40;;
5357;SDS011;2702;51.014;7.170;2023-02-15T00:34:34;27.17;;;17.47;;
5357;SDS011;2702;51.014;7.170;2023-02-15T00:37:00;23.83;;;16.80;;
5357;SDS011;2702;51.014;7.170;2023-02-15T00:39:26;24.80;;;17.60;;
5357;SDS011;2702;51.014;7.170;2023-02-15T00:41:52;25.40;;;18.47;;
5357;SDS011;2702;51.014;7.170;2023-02-15T00:44:18;23.57;;;18.27;;
5357;SDS011;2702;51.014;7.170;2023-02-15T00:46:44;25.07;;;17.60;;
5357;SDS011;2702;51.014;7.170;2023-02-15T00:49:10;24.90;;;17.93;;
5357;SDS011;2702;51.014;7.170;2023-02-15T00:51:36;25.93;;;17.60;;
5357;SDS011;2702;51.014;7.170;2023-02-15T00:54:02;28.10;;;19.40;;
5357;SDS011;2702;51.014;7.170;2023-02-15T00:56:28;24.77;;;16.87;;
5357;SDS011;2702;51.014;7.170;2023-02-15T00:58:54;25.57;;;18.07;;
5357;SDS011;2702;51.014;7.170;2023-02-15T01:01:20;24.20;;;16.87;;
5357;SDS011;2702;51.014;7.170;2023-02-15T01:03:47;26.47;;;18.93;;
5357;SDS011;2702;51.014;7.170;2023-02-15T01:06:14;24.00;;;17.53;;
5357;SDS011;2702;51.014;7.170;2023-02-15T01:08:41;27.97;;;19.33;;
5357;SDS011;2702;51.014;7.170;2023-02-15T01:11:11;23.97;;;17.23;;
5357;SDS011;2702;51.014;7.170;2023-02-15T01:13:38;25.20;;;18.20;;
5357;SDS011;2702;51.014;7.170;2023-02-15T01:16:05;24.87;;;17.53;;
5357;SDS011;2702;51.014;7.170;2023-02-15T01:18:32;24.43;;;18.00;;
5357;SDS011;2702;51.014;7.170;2023-02-15T01:20:59;27.73;;;19.70;;
5357;SDS011;2702;51.014;7.170;2023-02-15T01:23:25;21.87;;;16.80;;
5357;SDS011;2702;51.014;7.170;2023-02-15T01:25:51;29.00;;;19.40;;
5357;SDS011;2702;51.014;7.170;2023-02-15T01:28:17;23.10;;;17.13;;
5357;SDS011;2702;51.014;7.170;2023-02-15T01:30:42;26.97;;;18.70;;
5357;SDS011;2702;51.014;7.170;2023-02-15T01:33:09;30.30;;;19.60;;
5357;SDS011;2702;51.014;7.170;2023-02-15T01:35:42;24.50;;;17.80;;
5357;SDS011;2702;51.014;7.170;2023-02-15T01:38:10;22.90;;;17.40;;
5357;SDS011;2702;51.014;7.170;2023-02-15T01:40:36;24.93;;;17.97;;
5357;SDS011;2702;51.014;7.170;2023-02-15T01:43:08;23.85;;;17.38;;
5357;SDS011;2702;51.014;7.170;2023-02-15T01:45:36;28.60;;;19.00;;
5357;SDS011;2702;51.014;7.170;2023-02-15T01:50:38;24.83;;;17.17;;
5357;SDS011;2702;51.014;7.170;2023-02-15T01:53:21;30.02;;;18.85;;
5357;SDS011;2702;51.014;7.170;2023-02-15T01:55:58;25.55;;;18.10;;
5357;SDS011;2702;51.014;7.170;2023-02-15T01:58:27;26.55;;;18.65;;
5357;SDS011;2702;51.014;7.170;2023-02-15T02:00:54;27.13;;;18.80;;
5357;SDS011;2702;51.014;7.170;2023-02-15T02:03:27;25.07;;;18.67;;
5357;SDS011;2702;51.014;7.170;2023-02-15T02:06:01;28.13;;;18.40;;
5357;SDS011;2702;51.014;7.170;2023-02-15T02:08:27;26.60;;;18.30;;
5357;SDS011;2702;51.014;7.170;2023-02-15T02:10:53;29.17;;;19.27;;
5357;SDS011;2702;51.014;7.170;2023-02-15T02:13:19;26.97;;;18.63;;
5357;SDS011;2702;51.014;7.170;2023-02-15T02:16:00;27.57;;;17.67;;
5357;SDS011;2702;51.014;7.170;2023-02-15T02:18:41;27.87;;;17.87;;
5357;SDS011;2702;51.014;7.170;2023-02-15T02:26:56;26.23;;;18.83;;
5357;SDS011;2702;51.014;7.170;2023-02-15T02:32:47;27.38;;;18.50;;
5357;SDS011;2702;51.014;7.170;2023-02-15T02:43:11;27.15;;;17.98;;
5357;SDS011;2702;51.014;7.170;2023-02-15T02:45:43;26.70;;;18.25;;
5357;SDS011;2702;51.014;7.170;2023-02-15T02:48:24;27.25;;;18.17;;
5357;SDS011;2702;51.014;7.170;2023-02-15T02:50:53;28.48;;;19.10;;
5357;SDS011;2702;51.014;7.170;2023-02-15T02:53:19;25.90;;;18.30;;
5357;SDS011;2702;51.014;7.170;2023-02-15T02:55:46;28.33;;;19.60;;
5357;SDS011;2702;51.014;7.170;2023-02-15T03:03:57;28.60;;;18.90;;
5357;SDS011;2702;51.014;7.170;2023-02-15T03:06:31;28.23;;;18.40;;
5357;SDS011;2702;51.014;7.170;2023-02-15T03:09:06;25.60;;;19.10;;
5357;SDS011;2702;51.014;7.170;2023-02-15T03:11:43;26.67;;;18.90;;
5357;SDS011;2702;51.014;7.170;2023-02-15T03:14:10;29.95;;;19.35;;
5357;SDS011;2702;51.014;7.170;2023-02-15T03:16:38;28.63;;;18.77;;
5357;SDS011;2702;51.014;7.170;2023-02-15T03:19:08;31.17;;;19.60;;
5357;SDS011;2702;51.014;7.170;2023-02-15T03:24:35;31.08;;;19.98;;
5357;SDS011;2702;51.014;7.170;2023-02-15T03:27:06;29.40;;;19.20;;
5357;SDS011;2702;51.014;7.170;2023-02-15T03:29:37;29.25;;;18.63;;
5357;SDS011;2702;51.014;7.170;2023-02-15T03:32:05;27.60;;;18.90;;
5357;SDS011;2702;51.014;7.170;2023-02-15T03:34:35;32.80;;;19.38;;
5357;SDS011;2702;51.014;7.170;2023-02-15T03:37:06;24.07;;;18.37;;
5357;SDS011;2702;51.014;7.170;2023-02-15T03:39:42;26.45;;;17.20;;
5357;SDS011;2702;51.014;7.170;2023-02-15T03:42:17;25.50;;;18.05;;
5357;SDS011;2702;51.014;7.170;2023-02-15T03:47:29;29.00;;;19.25;;
5357;SDS011;2702;51.014;7.170;2023-02-15T03:50:02;29.02;;;20.75;;
5357;SDS011;2702;51.014;7.170;2023-02-15T03:52:53;30.58;;;19.55;;
5357;SDS011;2702;51.014;7.170;2023-02-15T03:55:22;27.00;;;17.88;;
5357;SDS011;2702;51.014;7.170;2023-02-15T03:57:48;27.65;;;19.00;;
5357;SDS011;2702;51.014;7.170;2023-02-15T04:00:34;26.50;;;19.52;;
5357;SDS011;2702;51.014;7.170;2023-02-15T04:03:39;25.45;;;17.73;;
5357;SDS011;2702;51.014;7.170;2023-02-15T04:06:27;26.85;;;17.85;;
5357;SDS011;2702;51.014;7.170;2023-02-15T04:08:53;28.80;;;18.60;;
5357;SDS011;2702;51.014;7.170;2023-02-15T04:11:37;30.10;;;19.40;;
5357;SDS011;2702;51.014;7.170;2023-02-15T04:14:02;28.10;;;19.17;;
5357;SDS011;2702;51.014;7.170;2023-02-15T04:16:48;28.30;;;19.13;;
5357;SDS011;2702;51.014;7.170;2023-02-15T04:19:14;27.98;;;19.50;;
5357;SDS011;2702;51.014;7.170;2023-02-15T04:21:59;28.80;;;18.48;;
5357;SDS011;2702;51.014;7.170;2023-02-15T04:24:43;28.27;;;17.98;;
5357;SDS011;2702;51.014;7.170;2023-02-15T04:27:27;26.15;;;17.27;;
5357;SDS011;2702;51.014;7.170;2023-02-15T04:29:53;23.03;;;17.50;;
5357;SDS011;2702;51.014;7.170;2023-02-15T04:32:19;23.40;;;17.37;;
5357;SDS011;2702;51.014;7.170;2023-02-15T04:34:45;29.23;;;18.17;;
5357;SDS011;2702;51.014;7.170;2023-02-15T04:37:10;26.00;;;18.27;;
5357;SDS011;2702;51.014;7.170;2023-02-15T04:39:36;27.07;;;17.27;;
5357;SDS011;2702;51.014;7.170;2023-02-15T04:42:02;25.90;;;17.73;;
5357;SDS011;2702;51.014;7.170;2023-02-15T04:44:28;24.73;;;16.93;;
5357;SDS011;2702;51.014;7.170;2023-02-15T04:46:54;28.60;;;17.17;;
5357;SDS011;2702;51.014;7.170;2023-02-15T04:49:20;26.57;;;16.87;;
5357;SDS011;2702;51.014;7.170;2023-02-15T04:51:45;26.40;;;18.23;;
5357;SDS011;2702;51.014;7.170;2023-02-15T04:54:11;31.50;;;19.07;;
5357;SDS011;2702;51.014;7.170;2023-02-15T04:56:37;29.83;;;18.70;;
5357;SDS011;2702;51.014;7.170;2023-02-15T04:59:04;24.98;;;18.30;;
5357;SDS011;2702;51.014;7.170;2023-02-15T05:01:30;28.83;;;18.83;;
5357;SDS011;2702;51.014;7.170;2023-02-15T05:03:56;26.48;;;18.05;;
5357;SDS011;2702;51.014;7.170;2023-02-15T05:06:22;30.47;;;17.87;;
5357;SDS011;2702;51.014;7.170;2023-02-15T05:08:48;25.73;;;18.20;;
5357;SDS011;2702;51.014;7.170;2023-02-15T05:11:13;31.30;;;18.47;;
5357;SDS011;2702;51.014;7.170;2023-02-15T05:13:39;26.30;;;18.23;;
5357;SDS011;2702;51.014;7.170;2023-02-15T05:16:05;25.00;;;16.83;;
5357;SDS011;2702;51.014;7.170;2023-02-15T05:18:31;28.20;;;18.20;;
5357;SDS011;2702;51.014;7.170;2023-02-15T05:20:57;29.35;;;18.10;;
5357;SDS011;2702;51.014;7.170;2023-02-15T05:23:23;26.83;;;17.83;;
5357;SDS011;2702;51.014;7.170;2023-02-15T05:25:49;24.87;;;16.60;;
5357;SDS011;2702;51.014;7.170;2023-02-15T05:28:34;25.48;;;16.65;;
5357;SDS011;2702;51.014;7.170;2023-02-15T05:31:10;22.92;;;16.42;;
5357;SDS011;2702;51.014;7.170;2023-02-15T05:33:37;22.67;;;15.75;;
5357;SDS011;2702;51.014;7.170;2023-02-15T05:36:04;25.23;;;18.23;;
5357;SDS011;2702;51.014;7.170;2023-02-15T05:38:31;24.35;;;16.60;;
5357;SDS011;2702;51.014;7.170;2023-02-15T05:40:57;24.90;;;17.58;;
5357;SDS011;2702;51.014;7.170;2023-02-15T05:43:23;23.75;;;16.73;;
5357;SDS011;2702;51.014;7.170;2023-02-15T05:45:53;24.88;;;17.63;;
5357;SDS011;2702;51.014;7.170;2023-02-15T05:48:21;24.67;;;17.00;;
5357;SDS011;2702;51.014;7.170;2023-02-15T05:51:01;28.80;;;18.52;;
5357;SDS011;2702;51.014;7.170;2023-02-15T05:53:30;23.10;;;16.60;;
5357;SDS011;2702;51.014;7.170;2023-02-15T05:55:57;25.65;;;17.15;;
5357;SDS011;2702;51.014;7.170;2023-02-15T05:58:27;24.25;;;16.30;;
5357;SDS011;2702;51.014;7.170;2023-02-15T06:00:55;25.30;;;17.35;;
5357;SDS011;2702;51.014;7.170;2023-02-15T06:03:22;24.67;;;17.20;;
5357;SDS011;2702;51.014;7.170;2023-02-15T06:05:48;25.98;;;17.42;;
5357;SDS011;2702;51.014;7.170;2023-02-15T06:08:14;26.37;;;17.87;;
5357;SDS011;2702;51.014;7.170;2023-02-15T06:10:40;24.50;;;16.93;;
5357;SDS011;2702;51.014;7.170;2023-02-15T06:13:06;22.40;;;15.90;;
5357;SDS011;2702;51.014;7.170;2023-02-15T06:15:32;23.30;;;15.73;;
5357;SDS011;2702;51.014;7.170;2023-02-15T06:17:58;26.98;;;16.60;;
5357;SDS011;2702;51.014;7.170;2023-02-15T06:20:24;22.53;;;16.43;;
5357;SDS011;2702;51.014;7.170;2023-02-15T06:22:50;23.90;;;15.73;;
5357;SDS011;2702;51.014;7.170;2023-02-15T06:25:16;28.00;;;16.53;;
5357;SDS011;2702;51.014;7.170;2023-02-15T06:27:42;24.30;;;16.77;;
5357;SDS011;2702;51.014;7.170;2023-02-15T06:30:09;22.63;;;16.27;;
5357;SDS011;2702;51.014;7.170;2023-02-15T06:32:35;25.42;;;16.13;;
5357;SDS011;2702;51.014;7.170;2023-02-15T06:35:01;18.33;;;14.90;;
5357;SDS011;2702;51.014;7.170;2023-02-15T06:37:27;21.58;;;15.45;;
5357;SDS011;2702;51.014;7.170;2023-02-15T06:39:53;25.37;;;15.80;;
5357;SDS011;2702;51.014;7.170;2023-02-15T06:42:19;23.30;;;16.67;;
5357;SDS011;2702;51.014;7.170;2023-02-15T06:44:46;22.35;;;16.65;;
5357;SDS011;2702;51.014;7.170;2023-02-15T06:47:12;21.87;;;14.90;;
5357;SDS011;2702;51.014;7.170;2023-02-15T06:49:38;26.33;;;16.93;;
5357;SDS011;2702;51.014;7.170;2023-02-15T06:52:04;23.40;;;16.43;;
5357;SDS011;2702;51.014;7.170;2023-02-15T06:54:30;32.15;;;17.23;;
5357;SDS011;2702;51.014;7.170;2023-02-15T06:56:55;23.90;;;16.20;;
5357;SDS011;2702;51.014;7.170;2023-02-15T06:59:21;21.43;;;14.73;;
5357;SDS011;2702;51.014;7.170;2023-02-15T07:01:47;22.77;;;16.10;;
5357;SDS011;2702;51.014;7.170;2023-02-15T07:04:14;24.70;;;15.88;;
5357;SDS011;2702;51.014;7.170;2023-02-15T07:06:40;22.52;;;16.15;;
5357;SDS011;2702;51.014;7.170;2023-02-15T07:09:06;20.63;;;15.30;;
5357;SDS011;2702;51.014;7.170;2023-02-15T07:11:32;22.63;;;16.27;;
5357;SDS011;2702;51.014;7.170;2023-02-15T07:14:16;26.30;;;17.58;;
5357;SDS011;2702;51.014;7.170;2023-02-15T07:16:43;20.92;;;14.23;;
5357;SDS011;2702;51.014;7.170;2023-02-15T07:19:09;23.13;;;15.17;;
5357;SDS011;2702;51.014;7.170;2023-02-15T07:21:35;23.00;;;15.82;;
5357;SDS011;2702;51.014;7.170;2023-02-15T07:24:01;22.95;;;16.45;;
5357;SDS011;2702;51.014;7.170;2023-02-15T07:26:28;28.02;;;16.70;;
5357;SDS011;2702;51.014;7.170;2023-02-15T07:28:56;28.65;;;17.23;;
5357;SDS011;2702;51.014;7.170;2023-02-15T07:31:22;21.10;;;15.43;;
5357;SDS011;2702;51.014;7.170;2023-02-15T07:33:47;25.10;;;16.60;;
5357;SDS011;2702;51.014;7.170;2023-02-15T07:36:14;20.93;;;16.23;;
5357;SDS011;2702;51.014;7.170;2023-02-15T07:38:41;20.73;;;15.82;;
5357;SDS011;2702;51.014;7.170;2023-02-15T07:41:08;21.38;;;14.80;;
5357;SDS011;2702;51.014;7.170;2023-02-15T07:43:40;19.13;;;14.13;;
5357;SDS011;2702;51.014;7.170;2023-02-15T07:46:08;21.63;;;14.38;;
5357;SDS011;2702;51.014;7.170;2023-02-15T07:48:36;19.05;;;14.80;;
5357;SDS011;2702;51.014;7.170;2023-02-15T07:51:05;20.05;;;14.90;;
5357;SDS011;2702;51.014;7.170;2023-02-15T07:53:32;23.50;;;15.30;;
5357;SDS011;2702;51.014;7.170;2023-02-15T07:55:59;20.23;;;14.30;;
5357;SDS011;2702;51.014;7.170;2023-02-15T07:58:26;16.08;;;12.57;;
5357;SDS011;2702;51.014;7.170;2023-02-15T08:01:12;21.08;;;14.38;;
5357;SDS011;2702;51.014;7.170;2023-02-15T08:03:39;20.45;;;15.00;;
5357;SDS011;2702;51.014;7.170;2023-02-15T08:06:05;21.45;;;14.00;;
5357;SDS011;2702;51.014;7.170;2023-02-15T08:08:33;19.63;;;13.73;;
5357;SDS011;2702;51.014;7.170;2023-02-15T08:11:05;17.65;;;13.55;;
5357;SDS011;2702;51.014;7.170;2023-02-15T08:13:50;20.55;;;14.32;;
5357;SDS011;2702;51.014;7.170;2023-02-15T08:16:31;18.60;;;13.18;;
5357;SDS011;2702;51.014;7.170;2023-02-15T08:19:00;19.70;;;13.43;;
5357;SDS011;2702;51.014;7.170;2023-02-15T08:21:29;23.77;;;13.90;;
5357;SDS011;2702;51.014;7.170;2023-02-15T08:23:55;20.13;;;14.23;;
5357;SDS011;2702;51.014;7.170;2023-02-15T08:26:23;16.80;;;12.43;;
5357;SDS011;2702;51.014;7.170;2023-02-15T08:28:50;17.65;;;13.20;;
5357;SDS011;2702;51.014;7.170;2023-02-15T08:31:16;17.10;;;12.90;;
5357;SDS011;2702;51.014;7.170;2023-02-15T08:33:43;17.60;;;12.27;;
5357;SDS011;2702;51.014;7.170;2023-02-15T08:36:11;17.38;;;12.77;;
5357;SDS011;2702;51.014;7.170;2023-02-15T08:38:40;19.07;;;13.67;;
5357;SDS011;2702;51.014;7.170;2023-02-15T08:41:12;16.90;;;12.27;;
5357;SDS011;2702;51.014;7.170;2023-02-15T08:43:43;15.90;;;12.30;;
5357;SDS011;2702;51.014;7.170;2023-02-15T08:46:11;17.95;;;12.90;;
5357;SDS011;2702;51.014;7.170;2023-02-15T08:48:37;17.33;;;12.43;;
5357;SDS011;2702;51.014;7.170;2023-02-15T08:51:13;16.27;;;12.40;;
5357;SDS011;2702;51.014;7.170;2023-02-15T08:53:43;14.67;;;11.67;;
5357;SDS011;2702;51.014;7.170;2023-02-15T08:56:16;14.23;;;11.60;;
5357;SDS011;2702;51.014;7.170;2023-02-15T08:58:43;16.57;;;12.67;;
5357;SDS011;2702;51.014;7.170;2023-02-15T09:01:10;14.97;;;11.13;;
5357;SDS011;2702;51.014;7.170;2023-02-15T09:03:45;16.90;;;11.63;;
5357;SDS011;2702;51.014;7.170;2023-02-15T09:06:14;18.67;;;12.43;;
5357;SDS011;2702;51.014;7.170;2023-02-15T09:08:44;14.67;;;11.43;;
5357;SDS011;2702;51.014;7.170;2023-02-15T09:11:11;17.33;;;12.10;;
5357;SDS011;2702;51.014;7.170;2023-02-15T09:13:47;16.00;;;11.90;;
5357;SDS011;2702;51.014;7.170;2023-02-15T09:16:15;15.67;;;10.80;;
5357;SDS011;2702;51.014;7.170;2023-02-15T09:18:44;17.70;;;13.20;;
5357;SDS011;2702;51.014;7.170;2023-02-15T09:21:11;14.73;;;10.87;;
5357;SDS011;2702;51.014;7.170;2023-02-15T09:23:39;13.67;;;11.10;;
5357;SDS011;2702;51.014;7.170;2023-02-15T09:26:10;15.00;;;10.50;;
5357;SDS011;2702;51.014;7.170;2023-02-15T09:28:37;14.83;;;11.77;;
5357;SDS011;2702;51.014;7.170;2023-02-15T09:31:13;16.67;;;10.73;;
5357;SDS011;2702;51.014;7.170;2023-02-15T09:33:42;14.60;;;10.20;;
5357;SDS011;2702;51.014;7.170;2023-02-15T09:38:42;16.90;;;12.07;;
5357;SDS011;2702;51.014;7.170;2023-02-15T09:41:33;15.50;;;11.20;;
5357;SDS011;2702;51.014;7.170;2023-02-15T09:44:41;15.00;;;10.30;;
5357;SDS011;2702;51.014;7.170;2023-02-15T09:50:37;12.30;;;9.83;;
5357;SDS011;2702;51.014;7.170;2023-02-15T09:58:35;12.53;;;10.20;;
5357;SDS011;2702;51.014;7.170;2023-02-15T10:06:32;11.67;;;9.53;;
5357;SDS011;2702;51.014;7.170;2023-02-15T10:12:45;16.07;;;10.87;;
5357;SDS011;2702;51.014;7.170;2023-02-15T10:18:39;15.30;;;10.67;;
5357;SDS011;2702;51.014;7.170;2023-02-15T10:27:15;11.00;;;9.23;;
5357;SDS011;2702;51.014;7.170;2023-02-15T10:32:37;11.97;;;9.93;;
5357;SDS011;2702;51.014;7.170;2023-02-15T10:35:10;12.33;;;9.97;;
5357;SDS011;2702;51.014;7.170;2023-02-15T10:38:05;11.37;;;9.53;;
5357;SDS011;2702;51.014;7.170;2023-02-15T10:40:50;12.67;;;10.70;;
5357;SDS011;2702;51.014;7.170;2023-02-15T11:02:20;11.33;;;9.23;;
5357;SDS011;2702;51.014;7.170;2023-02-15T11:07:46;11.90;;;9.67;;
5357;SDS011;2702;51.014;7.170;2023-02-15T11:10:26;12.77;;;10.00;;
5357;SDS011;2702;51.014;7.170;2023-02-15T11:12:56;13.23;;;11.00;;
5357;SDS011;2702;51.014;7.170;2023-02-15T11:17:59;12.83;;;10.50;;
5357;SDS011;2702;51.014;7.170;2023-02-15T11:23:39;11.50;;;10.30;;
5357;SDS011;2702;51.014;7.170;2023-02-15T11:26:15;11.90;;;9.87;;
5357;SDS011;2702;51.014;7.170;2023-02-15T11:31:49;11.60;;;10.00;;
5357;SDS011;2702;51.014;7.170;2023-02-15T11:34:24;12.43;;;9.90;;
5357;SDS011;2702;51.014;7.170;2023-02-15T11:37:06;14.47;;;10.57;;
5357;SDS011;2702;51.014;7.170;2023-02-15T11:39:35;11.90;;;9.53;;
5357;SDS011;2702;51.014;7.170;2023-02-15T11:42:02;12.20;;;10.27;;
5357;SDS011;2702;51.014;7.170;2023-02-15T11:44:37;13.13;;;10.30;;
5357;SDS011;2702;51.014;7.170;2023-02-15T11:47:19;11.37;;;10.03;;
5357;SDS011;2702;51.014;7.170;2023-02-15T11:49:45;14.10;;;10.03;;
5357;SDS011;2702;51.014;7.170;2023-02-15T11:52:12;12.93;;;9.90;;
5357;SDS011;2702;51.014;7.170;2023-02-15T11:54:41;11.43;;;10.10;;
5357;SDS011;2702;51.014;7.170;2023-02-15T11:59:56;13.23;;;11.00;;
5357;SDS011;2702;51.014;7.170;2023-02-15T12:02:29;12.40;;;10.80;;
5357;SDS011;2702;51.014;7.170;2023-02-15T12:05:00;13.20;;;10.30;;
5357;SDS011;2702;51.014;7.170;2023-02-15T12:12:45;13.13;;;11.00;;
5357;SDS011;2702;51.014;7.170;2023-02-15T12:15:11;14.63;;;10.97;;
5357;SDS011;2702;51.014;7.170;2023-02-15T12:22:49;12.90;;;10.40;;
5357;SDS011;2702;51.014;7.170;2023-02-15T12:26:02;14.67;;;12.00;;
5357;SDS011;2702;51.014;7.170;2023-02-15T12:28:21;11.20;;;10.00;;
5357;SDS011;2702;51.014;7.170;2023-02-15T12:30:52;12.20;;;10.50;;
5357;SDS011;2702;51.014;7.170;2023-02-15T12:33:27;14.23;;;11.57;;
5357;SDS011;2702;51.014;7.170;2023-02-15T12:35:59;11.60;;;10.20;;
5357;SDS011;2702;51.014;7.170;2023-02-15T12:38:41;13.03;;;10.63;;
5357;SDS011;2702;51.014;7.170;2023-02-15T12:49:25;13.43;;;10.47;;
5357;SDS011;2702;51.014;7.170;2023-02-15T12:51:54;12.40;;;10.43;;
5357;SDS011;2702;51.014;7.170;2023-02-15T12:56:56;11.83;;;10.07;;
5357;SDS011;2702;51.014;7.170;2023-02-15T12:59:23;12.97;;;11.23;;
5357;SDS011;2702;51.014;7.170;2023-02-15T13:01:51;12.00;;;10.70;;
5357;SDS011;2702;51.014;7.170;2023-02-15T13:04:27;11.87;;;10.43;;
5357;SDS011;2702;51.014;7.170;2023-02-15T13:06:55;13.93;;;11.00;;
5357;SDS011;2702;51.014;7.170;2023-02-15T13:11:57;13.73;;;12.00;;
5357;SDS011;2702;51.014;7.170;2023-02-15T13:14:34;13.10;;;11.00;;
5357;SDS011;2702;51.014;7.170;2023-02-15T13:17:02;12.73;;;10.63;;
5357;SDS011;2702;51.014;7.170;2023-02-15T13:22:06;13.87;;;12.57;;
5357;SDS011;2702;51.014;7.170;2023-02-15T13:24:39;14.13;;;11.70;;
5357;SDS011;2702;51.014;7.170;2023-02-15T13:27:12;13.33;;;10.97;;
5357;SDS011;2702;51.014;7.170;2023-02-15T13:29:44;12.90;;;11.60;;
5357;SDS011;2702;51.014;7.170;2023-02-15T13:35:13;12.80;;;11.13;;
5357;SDS011;2702;51.014;7.170;2023-02-15T13:40:39;13.47;;;10.67;;
5357;SDS011;2702;51.014;7.170;2023-02-15T13:51:43;14.70;;;11.60;;
5357;SDS011;2702;51.014;7.170;2023-02-15T14:00:39;13.73;;;11.47;;
5357;SDS011;2702;51.014;7.170;2023-02-15T14:09:27;13.87;;;12.33;;
5357;SDS011;2702;51.014;7.170;2023-02-15T14:15:09;13.47;;;10.83;;
5357;SDS011;2702;51.014;7.170;2023-02-15T14:20:15;11.87;;;10.63;;
5357;SDS011;2702;51.014;7.170;2023-02-15T14:23:11;12.30;;;11.00;;
5357;SDS011;2702;51.014;7.170;2023-02-15T14:25:59;13.53;;;12.03;;
5357;SDS011;2702;51.014;7.170;2023-02-15T14:28:52;12.53;;;11.07;;
5357;SDS011;2702;51.014;7.170;2023-02-15T14:31:41;13.50;;;11.57;;
5357;SDS011;2702;51.014;7.170;2023-02-15T14:34:18;13.73;;;11.77;;
5357;SDS011;2702;51.014;7.170;2023-02-15T14:36:49;13.73;;;11.70;;
5357;SDS011;2702;51.014;7.170;2023-02-15T14:39:31;12.97;;;11.67;;
5357;SDS011;2702;51.014;7.170;2023-02-15T14:50:42;13.30;;;11.53;;
5357;SDS011;2702;51.014;7.170;2023-02-15T14:53:24;12.93;;;11.57;;
5357;SDS011;2702;51.014;7.170;2023-02-15T14:58:35;16.93;;;11.50;;
5357;SDS011;2702;51.014;7.170;2023-02-15T15:01:34;13.60;;;11.40;;
5357;SDS011;2702;51.014;7.170;2023-02-15T15:04:13;18.83;;;11.53;;
5357;SDS011;2702;51.014;7.170;2023-02-15T15:06:57;14.07;;;11.13;;
5357;SDS011;2702;51.014;7.170;2023-02-15T15:09:33;13.90;;;11.07;;
5357;SDS011;2702;51.014;7.170;2023-02-15T15:14:47;14.50;;;11.87;;
5357;SDS011;2702;51.014;7.170;2023-02-15T15:22:51;14.97;;;11.90;;
5357;SDS011;2702;51.014;7.170;2023-02-15T15:29:23;15.23;;;12.20;;
5357;SDS011;2702;51.014;7.170;2023-02-15T15:34:15;13.50;;;11.23;;
5357;SDS011;2702;51.014;7.170;2023-02-15T15:37:11;15.27;;;12.37;;
5357;SDS011;2702;51.014;7.170;2023-02-15T15:39:51;15.40;;;12.77;;
5357;SDS011;2702;51.014;7.170;2023-02-15T15:45:34;13.93;;;11.90;;
5357;SDS011;2702;51.014;7.170;2023-02-15T15:48:31;14.80;;;12.53;;
5357;SDS011;2702;51.014;7.170;2023-02-15T15:51:10;15.07;;;12.80;;
5357;SDS011;2702;51.014;7.170;2023-02-15T15:53:49;14.70;;;11.77;;
5357;SDS011;2702;51.014;7.170;2023-02-15T15:56:22;15.40;;;12.80;;
5357;SDS011;2702;51.014;7.170;2023-02-15T15:58:59;12.83;;;11.47;;
5357;SDS011;2702;51.014;7.170;2023-02-15T16:01:35;15.30;;;12.33;;
5357;SDS011;2702;51.014;7.170;2023-02-15T16:04:04;14.70;;;11.70;;
5357;SDS011;2702;51.014;7.170;2023-02-15T16:06:34;15.60;;;12.10;;
5357;SDS011;2702;51.014;7.170;2023-02-15T16:09:12;12.67;;;10.90;;
5357;SDS011;2702;51.014;7.170;2023-02-15T16:11:51;18.43;;;13.10;;
5357;SDS011;2702;51.014;7.170;2023-02-15T16:14:26;14.00;;;11.73;;
5357;SDS011;2702;51.014;7.170;2023-02-15T16:17:00;12.27;;;11.07;;
5357;SDS011;2702;51.014;7.170;2023-02-15T16:19:38;19.47;;;14.37;;
5357;SDS011;2702;51.014;7.170;2023-02-15T16:22:08;16.13;;;12.20;;
5357;SDS011;2702;51.014;7.170;2023-02-15T16:32:52;14.63;;;12.30;;
5357;SDS011;2702;51.014;7.170;2023-02-15T16:35:20;13.53;;;12.13;;
5357;SDS011;2702;51.014;7.170;2023-02-15T16:37:48;15.83;;;12.40;;
5357;SDS011;2702;51.014;7.170;2023-02-15T16:42:52;15.23;;;11.60;;
5357;SDS011;2702;51.014;7.170;2023-02-15T16:45:21;13.30;;;10.67;;
5357;SDS011;2702;51.014;7.170;2023-02-15T16:47:52;13.97;;;11.73;;
5357;SDS011;2702;51.014;7.170;2023-02-15T16:52:54;15.90;;;10.97;;
5357;SDS011;2702;51.014;7.170;2023-02-15T16:55:24;15.93;;;12.70;;
5357;SDS011;2702;51.014;7.170;2023-02-15T16:57:59;15.00;;;12.37;;
5357;SDS011;2702;51.014;7.170;2023-02-15T17:00:34;15.20;;;12.07;;
5357;SDS011;2702;51.014;7.170;2023-02-15T17:03:05;18.67;;;12.53;;
5357;SDS011;2702;51.014;7.170;2023-02-15T17:05:47;13.90;;;12.40;;
5357;SDS011;2702;51.014;7.170;2023-02-15T17:08:23;16.70;;;13.37;;
5357;SDS011;2702;51.014;7.170;2023-02-15T17:16:36;16.50;;;13.60;;
5357;SDS011;2702;51.014;7.170;2023-02-15T17:21:55;14.83;;;13.10;;
5357;SDS011;2702;51.014;7.170;2023-02-15T17:24:39;14.50;;;12.70;;
5357;SDS011;2702;51.014;7.170;2023-02-15T17:27:19;17.70;;;13.43;;
5357;SDS011;2702;51.014;7.170;2023-02-15T17:29:50;16.37;;;13.40;;
5357;SDS011;2702;51.014;7.170;2023-02-15T17:32:21;14.87;;;12.20;;
5357;SDS011;2702;51.014;7.170;2023-02-15T17:38:14;15.20;;;12.43;;
5357;SDS011;2702;51.014;7.170;2023-02-15T17:40:45;16.10;;;12.70;;
5357;SDS011;2702;51.014;7.170;2023-02-15T17:43:11;13.97;;;12.27;;
5357;SDS011;2702;51.014;7.170;2023-02-15T17:45:42;15.90;;;13.03;;
5357;SDS011;2702;51.014;7.170;2023-02-15T17:48:21;16.50;;;12.50;;
5357;SDS011;2702;51.014;7.170;2023-02-15T17:50:49;16.60;;;12.87;;
5357;SDS011;2702;51.014;7.170;2023-02-15T17:53:16;15.63;;;12.30;;
5357;SDS011;2702;51.014;7.170;2023-02-15T17:55:43;16.40;;;13.40;;
5357;SDS011;2702;51.014;7.170;2023-02-15T17:58:10;16.20;;;13.00;;
5357;SDS011;2702;51.014;7.170;2023-02-15T18:00:44;15.27;;;12.97;;
5357;SDS011;2702;51.014;7.170;2023-02-15T18:03:45;15.00;;;12.93;;
5357;SDS011;2702;51.014;7.170;2023-02-15T18:06:31;15.17;;;13.40;;
5357;SDS011;2702;51.014;7.170;2023-02-15T18:09:18;16.23;;;13.37;;
5357;SDS011;2702;51.014;7.170;2023-02-15T18:14:49;13.93;;;12.43;;
5357;SDS011;2702;51.014;7.170;2023-02-15T18:17:16;15.37;;;12.67;;
5357;SDS011;2702;51.014;7.170;2023-02-15T18:19:43;17.17;;;12.83;;
5357;SDS011;2702;51.014;7.170;2023-02-15T18:22:11;17.50;;;14.10;;
5357;SDS011;2702;51.014;7.170;2023-02-15T18:24:39;15.43;;;12.97;;
5357;SDS011;2702;51.014;7.170;2023-02-15T18:27:06;15.60;;;13.03;;
5357;SDS011;2702;51.014;7.170;2023-02-15T18:29:32;15.80;;;13.20;;
5357;SDS011;2702;51.014;7.170;2023-02-15T18:31:58;16.30;;;13.80;;
5357;SDS011;2702;51.014;7.170;2023-02-15T18:34:30;15.03;;;13.40;;
5357;SDS011;2702;51.014;7.170;2023-02-15T18:37:02;17.07;;;13.80;;
5357;SDS011;2702;51.014;7.170;2023-02-15T18:39:44;17.17;;;12.80;;
5357;SDS011;2702;51.014;7.170;2023-02-15T18:42:27;19.23;;;12.83;;
5357;SDS011;2702;51.014;7.170;2023-02-15T18:47:45;16.73;;;12.83;;